createdAt,value
2023-01-02T00:02:19.865Z,100508.91
2023-01-02T00:04:48.543Z,100508.91
2023-01-02T00:07:16.983Z,100514.19
2023-01-02T00:09:48.273Z,100523.78
2023-01-02T00:12:17.089Z,100521.09
2023-01-02T00:14:46.654Z,100521.94
2023-01-02T00:17:17.683Z,100530.63
2023-01-02T00:19:48.990Z,100531.47
2023-01-02T00:22:17.805Z,100539.13
2023-01-02T00:24:46.523Z,100543.44
2023-01-02T00:27:16.107Z,100545.06
2023-01-02T00:29:45.804Z,100545.97
2023-01-02T00:32:14.713Z,100540.84
2023-01-02T00:34:43.540Z,100549.44
2023-01-02T00:37:13.919Z,100546.75
2023-01-02T00:39:42.591Z,100549.22
2023-01-02T00:42:11.277Z,100549.22
2023-01-02T00:44:40.689Z,100552.66
2023-01-02T00:47:09.312Z,100558.72
2023-01-02T00:49:38.031Z,100563.09
2023-01-02T00:52:06.911Z,100566.63
2023-01-02T00:54:38.585Z,100567.47
2023-01-02T00:57:07.295Z,100576.06
2023-01-02T00:59:37.225Z,100571.00
2023-01-02T01:02:06.061Z,100573.66
2023-01-02T01:04:38.043Z,100581.63
2023-01-02T01:07:12.757Z,100583.38
2023-01-02T01:09:43.136Z,100571.13
2023-01-02T01:12:13.986Z,100582.59
2023-01-02T01:14:43.947Z,100586.19
2023-01-02T01:17:15.192Z,100583.59
2023-01-02T01:19:47.365Z,100591.41
2023-01-02T01:22:18.564Z,100591.41
2023-01-02T01:24:50.804Z,100595.78
2023-01-02T01:27:19.844Z,100595.00
2023-01-02T01:29:48.451Z,100598.63
2023-01-02T01:32:17.142Z,100611.75
2023-01-02T01:34:47.912Z,100607.25
2023-01-02T01:37:16.921Z,100620.09
2023-01-02T01:39:45.606Z,100625.22
2023-01-02T01:42:17.813Z,100631.16
2023-01-02T01:44:50.261Z,100628.38
2023-01-02T01:47:32.528Z,100638.03
2023-01-02T01:50:06.899Z,100646.72
2023-01-02T01:52:40.614Z,100650.25
2023-01-02T01:55:14.782Z,100645.88
2023-01-02T01:57:51.731Z,100648.59
2023-01-02T02:00:20.554Z,100657.25
2023-01-02T02:02:55.852Z,100656.50
2023-01-02T02:05:29.804Z,100656.63
2023-01-02T02:08:08.546Z,100668.75
2023-01-02T02:10:38.879Z,100671.28
2023-01-02T02:13:08.924Z,100675.59
2023-01-02T02:15:48.603Z,100680.78
2023-01-02T02:18:31.400Z,100684.25
2023-01-02T02:21:05.771Z,100687.66
2023-01-02T02:24:04.291Z,100693.63
2023-01-02T02:27:09.579Z,100697.94
2023-01-02T02:30:14.457Z,100714.41
2023-01-02T02:33:06.069Z,100713.38
2023-01-02T02:35:49.461Z,100715.13
2023-01-02T02:38:31.207Z,100725.63
2023-01-02T02:41:08.857Z,100728.31
2023-01-02T02:44:00.428Z,100734.28
2023-01-02T02:46:42.865Z,100742.13
2023-01-02T02:49:21.443Z,100739.44
2023-01-02T02:51:57.677Z,100751.63
2023-01-02T02:54:32.281Z,100752.47
2023-01-02T02:57:02.423Z,100741.16
2023-01-02T02:59:32.214Z,100741.19
2023-01-02T03:02:04.301Z,100744.66
2023-01-02T03:04:33.680Z,100743.75
2023-01-02T03:07:18.286Z,100744.59
2023-01-02T03:09:57.657Z,100759.25
2023-01-02T03:12:37.945Z,100756.72
2023-01-02T03:15:18.448Z,100759.31
2023-01-02T03:18:02.862Z,100767.03
2023-01-02T03:20:39.306Z,100771.38
2023-01-02T03:23:15.560Z,100774.06
2023-01-02T03:25:46.188Z,100780.06
2023-01-02T03:28:18.937Z,100783.53
2023-01-02T03:30:51.030Z,100792.13
2023-01-02T03:33:27.019Z,100784.38
2023-01-02T03:36:02.210Z,100793.88
2023-01-02T03:38:35.995Z,100800.47
2023-01-02T03:41:11.063Z,100795.53
2023-01-02T03:43:42.282Z,100805.03
2023-01-02T03:46:19.179Z,100820.59
2023-01-02T03:48:57.201Z,100827.66
2023-01-02T03:51:25.899Z,100826.06
2023-01-02T03:53:55.498Z,100835.59
2023-01-02T03:56:31.074Z,100834.66
2023-01-02T03:59:07.882Z,100838.31
2023-01-02T04:01:42.544Z,100841.75
2023-01-02T04:04:19.253Z,100841.72
2023-01-02T04:06:52.975Z,100839.13
2023-01-02T04:09:25.443Z,100847.66
2023-01-02T04:11:58.091Z,100847.66
2023-01-02T04:14:32.606Z,100846.97
2023-01-02T04:17:03.779Z,100854.88
2023-01-02T04:19:42.310Z,100851.41
2023-01-02T04:22:17.126Z,100851.41
2023-01-02T04:24:52.006Z,100849.53
2023-01-02T04:27:26.784Z,100852.16
2023-01-02T04:29:58.138Z,100854.69
2023-01-02T04:32:33.163Z,100851.22
2023-01-02T04:35:07.712Z,100860.88
2023-01-02T04:37:40.300Z,100849.78
2023-01-02T04:40:15.129Z,100862.94
2023-01-02T04:42:44.182Z,100863.16
2023-01-02T04:45:14.092Z,100864.16
2023-01-02T04:47:44.118Z,100873.66
2023-01-02T04:50:15.455Z,100878.78
2023-01-02T04:52:44.297Z,100876.09
2023-01-02T04:55:12.995Z,100881.25
2023-01-02T04:57:41.573Z,100885.59
2023-01-02T05:00:11.186Z,100892.66
2023-01-02T05:02:41.975Z,100893.44
2023-01-02T05:05:11.589Z,100890.03
2023-01-02T05:07:41.735Z,100889.25
2023-01-02T05:10:11.522Z,100902.41
2023-01-02T05:12:41.599Z,100901.56
2023-01-02T05:15:15.622Z,100907.63
2023-01-02T05:17:44.745Z,100909.38
2023-01-02T05:20:15.076Z,100923.94
2023-01-02T05:23:03.577Z,100914.53
2023-01-02T05:25:35.680Z,100919.63
2023-01-02T05:28:07.028Z,100919.56
2023-01-02T05:30:39.071Z,100918.78
2023-01-02T05:33:08.903Z,100921.50
2023-01-02T05:35:38.371Z,100932.09
2023-01-02T05:38:08.780Z,100935.84
2023-01-02T05:40:37.652Z,100944.56
2023-01-02T05:43:06.592Z,100945.50
2023-01-02T05:45:36.275Z,100949.00
2023-01-02T05:48:05.350Z,100952.63
2023-01-02T05:50:34.993Z,100958.63
2023-01-02T05:53:03.925Z,100957.84
2023-01-02T05:55:34.047Z,100975.94
2023-01-02T05:58:05.375Z,100969.13
2023-01-02T06:00:35.871Z,100979.72
2023-01-02T06:03:04.591Z,100984.84
2023-01-02T06:05:33.462Z,100991.16
2023-01-02T06:08:02.153Z,100990.22
2023-01-02T06:10:31.845Z,100999.13
2023-01-02T06:13:01.954Z,101012.94
2023-01-02T06:15:30.567Z,101003.38
2023-01-02T06:17:59.223Z,101006.00
2023-01-02T06:20:28.119Z,101004.00
2023-01-02T06:22:57.873Z,101018.72
2023-01-02T06:25:26.704Z,101018.78
2023-01-02T06:27:55.170Z,101020.31
2023-01-02T06:30:26.494Z,101028.22
2023-01-02T06:32:58.554Z,101018.56
2023-01-02T06:35:27.485Z,101025.34
2023-01-02T06:37:56.088Z,101031.38
2023-01-02T06:40:25.820Z,101035.50
2023-01-02T06:42:59.878Z,101036.63
2023-01-02T06:45:30.520Z,101036.75
2023-01-02T06:48:01.268Z,101036.75
2023-01-02T06:50:34.898Z,101042.00
2023-01-02T06:53:06.193Z,101038.38
2023-01-02T06:55:36.334Z,101041.97
2023-01-02T06:58:11.130Z,101045.44
2023-01-02T07:00:43.668Z,101048.72
2023-01-02T07:03:12.343Z,101048.72
2023-01-02T07:05:41.047Z,101053.94
2023-01-02T07:08:09.863Z,101052.22
2023-01-02T07:10:38.767Z,101058.31
2023-01-02T07:13:08.932Z,101056.41
2023-01-02T07:15:38.004Z,101056.47
2023-01-02T07:18:08.160Z,101065.09
2023-01-02T07:20:36.833Z,101064.28
2023-01-02T07:23:05.421Z,101070.47
2023-01-02T07:25:35.365Z,101072.09
2023-01-02T07:28:07.084Z,101075.69
2023-01-02T07:30:35.745Z,101080.84
2023-01-02T07:33:04.293Z,101083.34
2023-01-02T07:35:34.389Z,101093.69
2023-01-02T07:38:02.774Z,101099.84
2023-01-02T07:40:35.351Z,101101.53
2023-01-02T07:43:05.076Z,101108.44
2023-01-02T07:45:34.932Z,101104.28
2023-01-02T07:48:05.587Z,101108.66
2023-01-02T07:50:37.014Z,101113.88
2023-01-02T07:53:06.004Z,101114.66
2023-01-02T07:55:37.826Z,101114.63
2023-01-02T07:58:06.584Z,101119.94
2023-01-02T08:00:36.255Z,101117.31
2023-01-02T08:03:05.289Z,101126.06
2023-01-02T08:05:36.861Z,101124.38
2023-01-02T08:08:06.929Z,101133.06
2023-01-02T08:10:35.613Z,101136.78
2023-01-02T08:13:04.289Z,101135.13
2023-01-02T08:15:32.871Z,101140.44
2023-01-02T08:18:01.434Z,101140.56
2023-01-02T08:20:30.490Z,101146.72
2023-01-02T08:23:01.936Z,101149.38
2023-01-02T08:25:30.816Z,101144.38
2023-01-02T08:27:59.565Z,101156.75
2023-01-02T08:30:28.170Z,101155.13
2023-01-02T08:32:56.850Z,101154.38
2023-01-02T08:35:38.064Z,101154.53
2023-01-02T08:38:10.283Z,101155.59
2023-01-02T08:40:39.725Z,101163.53
2023-01-02T08:43:08.915Z,101173.22
2023-01-02T08:45:37.812Z,101172.38
2023-01-02T08:48:20.639Z,101170.81
2023-01-02T08:50:51.143Z,101183.88
2023-01-02T08:53:21.089Z,101187.41
2023-01-02T08:55:49.885Z,101189.09
2023-01-02T08:58:21.107Z,101190.03
2023-01-02T09:00:49.487Z,101192.69
2023-01-02T09:03:18.168Z,101201.25
2023-01-02T09:05:46.798Z,101204.84
2023-01-02T09:08:15.154Z,101200.56
2023-01-02T09:10:45.634Z,101210.91
2023-01-02T09:13:14.462Z,101209.94
2023-01-02T09:15:46.373Z,101210.84
2023-01-02T09:18:14.803Z,101212.47
2023-01-02T09:20:43.330Z,101216.78
2023-01-02T09:23:17.575Z,101221.09
2023-01-02T09:25:49.621Z,101228.84
2023-01-02T09:28:18.077Z,101227.88
2023-01-02T09:30:47.018Z,101229.63
2023-01-02T09:33:20.302Z,101236.44
2023-01-02T09:35:49.350Z,101242.34
2023-01-02T09:38:18.200Z,101253.41
2023-01-02T09:40:56.521Z,101257.56
2023-01-02T09:43:33.416Z,101259.81
2023-01-02T09:46:04.656Z,101257.59
2023-01-02T09:48:37.753Z,101259.50
2023-01-02T09:51:08.081Z,101266.56
2023-01-02T09:53:37.138Z,101264.78
2023-01-02T09:56:21.048Z,101279.59
2023-01-02T09:58:56.244Z,101278.97
2023-01-02T10:01:34.995Z,101279.03
2023-01-02T10:04:14.624Z,101288.28
2023-01-02T10:06:49.043Z,101292.91
2023-01-02T10:09:24.303Z,101289.16
2023-01-02T10:12:03.376Z,101285.16
2023-01-02T10:14:44.740Z,101287.69
2023-01-02T10:17:17.814Z,101283.78
2023-01-02T10:19:54.159Z,101288.56
2023-01-02T10:22:30.358Z,101287.88
2023-01-02T10:25:07.438Z,101288.91
2023-01-02T10:27:43.447Z,101290.84
2023-01-02T10:30:21.361Z,101289.06
2023-01-02T10:32:57.401Z,101287.41
2023-01-02T10:35:38.669Z,101278.72
2023-01-02T10:38:07.711Z,101288.53
2023-01-02T10:40:36.601Z,101284.72
2023-01-02T10:43:07.093Z,101284.22
2023-01-02T10:45:35.968Z,101291.09
2023-01-02T10:48:05.340Z,101291.09
2023-01-02T10:50:41.844Z,101300.31
2023-01-02T10:53:21.176Z,101293.19
2023-01-02T10:55:50.538Z,101291.88
2023-01-02T10:58:24.367Z,101294.25
2023-01-02T11:01:04.485Z,101289.72
2023-01-02T11:03:33.095Z,101294.19
2023-01-02T11:06:25.670Z,101287.91
2023-01-02T11:09:00.264Z,101282.47
2023-01-02T11:11:30.669Z,101296.41
2023-01-02T11:14:11.716Z,101286.94
2023-01-02T11:16:42.223Z,101286.44
2023-01-02T11:19:27.472Z,101280.16
2023-01-02T11:21:58.800Z,101276.75
2023-01-02T11:24:28.914Z,101285.69
2023-01-02T11:27:02.219Z,101285.13
2023-01-02T11:29:36.234Z,101291.84
2023-01-02T11:32:06.318Z,101283.94
2023-01-02T11:34:37.720Z,101284.59
2023-01-02T11:37:16.313Z,101288.63
2023-01-02T11:39:59.880Z,101287.34
2023-01-02T11:42:55.006Z,101279.41
2023-01-02T11:45:25.176Z,101282.25
2023-01-02T11:47:58.684Z,101278.25
2023-01-02T11:50:29.447Z,101275.94
2023-01-02T11:53:04.175Z,101278.47
2023-01-02T11:55:44.775Z,101282.16
2023-01-02T11:58:23.716Z,101271.97
2023-01-02T12:00:59.559Z,101272.84
2023-01-02T12:03:30.877Z,101276.88
2023-01-02T12:06:17.824Z,101279.19
2023-01-02T12:09:02.199Z,101279.75
2023-01-02T12:11:47.752Z,101279.53
2023-01-02T12:14:19.743Z,101278.31
2023-01-02T12:17:16.174Z,101274.31
2023-01-02T12:20:18.039Z,101277.72
2023-01-02T12:23:31.804Z,101274.38
2023-01-02T12:26:10.660Z,101274.81
2023-01-02T12:29:01.262Z,101287.03
2023-01-02T12:31:49.732Z,101282.31
2023-01-02T12:34:35.629Z,101283.91
2023-01-02T12:37:24.453Z,101283.78
2023-01-02T12:40:20.980Z,101277.75
2023-01-02T12:43:03.683Z,101278.22
2023-01-02T12:45:40.783Z,101278.31
2023-01-02T12:48:24.967Z,101281.19
2023-01-02T12:51:09.012Z,101281.47
2023-01-02T12:54:19.077Z,101276.09
2023-01-02T12:57:07.628Z,101275.28
2023-01-02T13:00:13.260Z,101271.13
2023-01-02T13:03:10.523Z,101274.06
2023-01-02T13:05:49.487Z,101269.66
2023-01-02T13:08:33.255Z,101274.78
2023-01-02T13:11:05.709Z,101272.06
2023-01-02T13:13:40.520Z,101262.09
2023-01-02T13:16:25.300Z,101262.38
2023-01-02T13:19:17.812Z,101266.41
2023-01-02T13:21:52.996Z,101264.13
2023-01-02T13:24:27.240Z,101262.59
2023-01-02T13:26:58.395Z,101259.63
2023-01-02T13:29:30.966Z,101271.47
2023-01-02T13:31:59.664Z,101259.25
2023-01-02T13:34:32.417Z,101262.16
2023-01-02T13:37:07.128Z,101259.16
2023-01-02T13:39:50.427Z,101255.00
2023-01-02T13:42:43.114Z,101255.38
2023-01-02T13:45:19.895Z,101242.28
2023-01-02T13:47:54.138Z,101250.53
2023-01-02T13:50:32.263Z,101246.50
2023-01-02T13:53:06.893Z,101245.13
2023-01-02T13:55:41.039Z,101250.22
2023-01-02T13:58:43.881Z,101246.59
2023-01-02T14:01:43.210Z,101249.69
2023-01-02T14:04:33.623Z,101249.84
2023-01-02T14:07:45.379Z,101252.94
2023-01-02T14:10:42.167Z,101248.44
2023-01-02T14:13:22.203Z,101254.09
2023-01-02T14:16:42.444Z,101259.50
2023-01-02T14:19:20.945Z,101252.91
2023-01-02T14:22:01.912Z,101245.44
2023-01-02T14:24:35.100Z,101236.09
2023-01-02T14:27:10.503Z,101244.34
2023-01-02T14:29:53.277Z,101236.47
2023-01-02T14:32:31.574Z,101239.00
2023-01-02T14:35:04.274Z,101248.63
2023-01-02T14:37:41.199Z,101242.56
2023-01-02T14:40:37.011Z,101241.09
2023-01-02T14:43:31.588Z,101242.44
2023-01-02T14:46:09.219Z,101238.28
2023-01-02T14:48:49.175Z,101232.41
2023-01-02T14:51:23.256Z,101229.72
2023-01-02T14:53:56.120Z,101225.41
2023-01-02T14:56:33.132Z,101225.50
2023-01-02T14:59:07.566Z,101235.56
2023-01-02T15:01:44.854Z,101236.03
2023-01-02T15:04:25.069Z,101243.69
2023-01-02T15:07:10.783Z,101244.13
2023-01-02T15:09:45.539Z,101241.25
2023-01-02T15:12:41.160Z,101244.88
2023-01-02T15:15:14.025Z,101241.53
2023-01-02T15:17:44.579Z,101243.09
2023-01-02T15:20:21.567Z,101242.59
2023-01-02T15:22:53.765Z,101242.13
2023-01-02T15:25:37.795Z,101236.09
2023-01-02T15:28:07.583Z,101246.66
2023-01-02T15:30:40.662Z,101246.13
2023-01-02T15:33:29.606Z,101250.09
2023-01-02T15:36:04.100Z,101243.94
2023-01-02T15:38:34.875Z,101247.59
2023-01-02T15:41:11.780Z,101246.84
2023-01-02T15:43:59.285Z,101246.41
2023-01-02T15:46:29.832Z,101237.97
2023-01-02T15:49:02.723Z,101242.47
2023-01-02T15:51:41.554Z,101244.31
2023-01-02T15:54:15.219Z,101243.59
2023-01-02T15:56:44.485Z,101239.38
2023-01-02T15:59:30.242Z,101244.66
2023-01-02T16:02:02.903Z,101240.41
2023-01-02T16:04:35.160Z,101253.81
2023-01-02T16:07:16.797Z,101252.38
2023-01-02T16:09:58.978Z,101253.38
2023-01-02T16:12:28.194Z,101259.72
2023-01-02T16:15:02.341Z,101258.34
2023-01-02T16:17:38.095Z,101259.47
2023-01-02T16:20:11.911Z,101256.97
2023-01-02T16:22:46.185Z,101253.50
2023-01-02T16:25:20.023Z,101254.81
2023-01-02T16:27:56.174Z,101263.81
2023-01-02T16:30:37.887Z,101268.38
2023-01-02T16:33:27.053Z,101271.34
2023-01-02T16:36:01.433Z,101275.06
2023-01-02T16:38:32.445Z,101276.22
2023-01-02T16:41:12.598Z,101284.00
2023-01-02T16:43:48.263Z,101274.72
2023-01-02T16:46:18.301Z,101278.34
2023-01-02T16:48:48.537Z,101269.00
2023-01-02T16:51:18.106Z,101270.69
2023-01-02T16:53:49.746Z,101276.19
2023-01-02T16:56:18.425Z,101279.06
2023-01-02T16:58:49.334Z,101276.63
2023-01-02T17:01:26.746Z,101274.09
2023-01-02T17:03:59.740Z,101272.59
2023-01-02T17:06:28.377Z,101274.44
2023-01-02T17:08:57.298Z,101267.47
2023-01-02T17:11:27.207Z,101268.41
2023-01-02T17:14:02.649Z,101255.47
2023-01-02T17:16:33.452Z,101266.13
2023-01-02T17:19:03.626Z,101268.75
2023-01-02T17:21:33.087Z,101268.00
2023-01-02T17:24:02.153Z,101259.13
2023-01-02T17:26:30.870Z,101254.25
2023-01-02T17:29:01.884Z,101253.94
2023-01-02T17:31:31.622Z,101245.81
2023-01-02T17:34:02.310Z,101241.44
2023-01-02T17:36:33.615Z,101235.13
2023-01-02T17:39:02.597Z,101248.31
2023-01-02T17:41:34.235Z,101242.34
2023-01-02T17:44:04.125Z,101243.31
2023-01-02T17:47:16.624Z,101241.72
2023-01-02T17:49:23.103Z,101238.41
2023-01-02T17:51:59.250Z,101243.13
2023-01-02T17:54:29.231Z,101239.63
2023-01-02T17:56:58.344Z,101240.53
2023-01-02T17:59:27.385Z,101233.69
2023-01-02T18:02:01.567Z,101231.47
2023-01-02T18:04:31.170Z,101229.00
2023-01-02T18:07:02.616Z,101234.13
2023-01-02T18:09:33.819Z,101231.19
2023-01-02T18:12:02.378Z,101232.03
2023-01-02T18:14:37.342Z,101236.50
2023-01-02T18:17:16.410Z,101240.72
2023-01-02T18:19:48.351Z,101225.13
2023-01-02T18:22:24.344Z,101225.97
2023-01-02T18:24:55.486Z,101218.16
2023-01-02T18:27:27.867Z,101222.63
2023-01-02T18:30:00.694Z,101223.63
2023-01-02T18:32:35.067Z,101228.00
2023-01-02T18:35:55.048Z,101231.69
2023-01-02T18:38:22.155Z,101235.31
2023-01-02T18:40:53.689Z,101237.22
2023-01-02T18:43:32.893Z,101243.28
2023-01-02T18:46:16.525Z,101244.06
2023-01-02T18:48:48.055Z,101244.91
2023-01-02T18:51:21.075Z,101243.88
2023-01-02T18:53:53.072Z,101242.97
2023-01-02T18:56:26.183Z,101241.28
2023-01-02T18:59:03.396Z,101248.34
2023-01-02T19:01:36.737Z,101245.16
2023-01-02T19:04:28.170Z,101257.34
2023-01-02T19:07:03.534Z,101257.50
2023-01-02T19:09:36.520Z,101258.41
2023-01-02T19:12:44.587Z,101259.28
2023-01-02T19:15:34.474Z,101252.38
2023-01-02T19:18:21.321Z,101254.38
2023-01-02T19:20:57.634Z,101254.28
2023-01-02T19:23:31.758Z,101247.41
2023-01-02T19:26:23.496Z,101239.50
2023-01-02T19:29:05.645Z,101239.41
2023-01-02T19:31:42.952Z,101222.97
2023-01-02T19:34:40.346Z,101228.22
2023-01-02T19:37:28.073Z,101235.69
2023-01-02T19:39:59.463Z,101242.59
2023-01-02T19:42:32.366Z,101235.00
2023-01-02T19:45:03.946Z,101236.69
2023-01-02T19:47:40.810Z,101226.47
2023-01-02T19:50:14.202Z,101225.03
2023-01-02T19:52:43.463Z,101209.47
2023-01-02T19:55:14.464Z,101202.63
2023-01-02T19:57:47.942Z,101216.50
2023-01-02T20:00:19.720Z,101228.41
2023-01-02T20:02:51.991Z,101219.09
2023-01-02T20:05:22.977Z,101213.91
2023-01-02T20:07:53.495Z,101199.72
2023-01-02T20:10:22.920Z,101195.19
2023-01-02T20:12:55.699Z,101190.03
2023-01-02T20:15:26.249Z,101181.28
2023-01-02T20:17:56.848Z,101181.03
2023-01-02T20:20:31.477Z,101168.16
2023-01-02T20:23:05.988Z,101164.97
2023-01-02T20:25:36.673Z,101172.53
2023-01-02T20:28:07.012Z,101181.69
2023-01-02T20:30:36.739Z,101178.97
2023-01-02T20:33:06.690Z,101186.91
2023-01-02T20:35:35.501Z,101179.16
2023-01-02T20:38:04.245Z,101167.88
2023-01-02T20:40:39.721Z,101148.69
2023-01-02T20:43:09.893Z,101153.81
2023-01-02T20:45:40.565Z,101153.63
2023-01-02T20:48:09.222Z,101157.19
2023-01-02T20:50:37.835Z,101161.84
2023-01-02T20:53:07.079Z,101152.28
2023-01-02T20:55:38.025Z,101155.56
2023-01-02T20:58:07.271Z,101152.81
2023-01-02T21:00:38.306Z,101150.66
2023-01-02T21:03:08.775Z,101149.19
2023-01-02T21:05:39.746Z,101147.13
2023-01-02T21:08:09.857Z,101137.63
2023-01-02T21:10:38.506Z,101135.50
2023-01-02T21:13:11.034Z,101132.13
2023-01-02T21:15:50.116Z,101130.00
2023-01-02T21:18:20.904Z,101132.19
2023-01-02T21:20:51.909Z,101129.50
2023-01-02T21:23:21.852Z,101130.13
2023-01-02T21:25:51.387Z,101121.41
2023-01-02T21:28:21.166Z,101121.13
2023-01-02T21:30:51.939Z,101114.97
2023-01-02T21:33:22.205Z,101111.53
2023-01-02T21:35:52.809Z,101104.91
2023-01-02T21:38:22.959Z,101098.63
2023-01-02T21:40:52.046Z,101093.09
2023-01-02T21:43:21.390Z,101094.31
2023-01-02T21:45:51.424Z,101085.84
2023-01-02T21:48:20.071Z,101081.63
2023-01-02T21:50:48.474Z,101090.19
2023-01-02T21:53:18.290Z,101089.25
2023-01-02T21:55:47.102Z,101082.75
2023-01-02T21:58:15.860Z,101075.97
2023-01-02T22:00:44.693Z,101064.97
2023-01-02T22:03:14.723Z,101058.44
2023-01-02T22:05:43.592Z,101065.50
2023-01-02T22:08:12.022Z,101069.50
2023-01-02T22:10:40.870Z,101050.81
2023-01-02T22:13:09.454Z,101059.13
2023-01-02T22:15:38.102Z,101050.28
2023-01-02T22:18:06.928Z,101054.59
2023-01-02T22:20:36.971Z,101058.56
2023-01-02T22:23:08.649Z,101050.16
2023-01-02T22:25:38.150Z,101060.22
2023-01-02T22:28:07.107Z,101043.94
2023-01-02T22:30:35.733Z,101044.66
2023-01-02T22:33:05.079Z,101047.53
2023-01-02T22:35:34.430Z,101037.16
2023-01-02T22:38:04.844Z,101049.84
2023-01-02T22:40:35.022Z,101046.25
2023-01-02T22:43:05.660Z,101042.31
2023-01-02T22:45:43.408Z,101023.63
2023-01-02T22:48:20.493Z,101031.81
2023-01-02T22:50:51.203Z,101036.34
2023-01-02T22:53:26.010Z,101033.47
2023-01-02T22:55:54.992Z,101031.06
2023-01-02T22:58:24.169Z,101039.88
2023-01-02T23:00:59.002Z,101030.00
2023-01-02T23:03:30.629Z,101015.13
2023-01-02T23:05:59.240Z,101018.44
2023-01-02T23:08:29.552Z,101007.75
2023-01-02T23:10:58.323Z,100998.19
2023-01-02T23:13:27.060Z,100993.44
2023-01-02T23:16:13.227Z,100990.69
2023-01-02T23:18:59.174Z,100984.22
2023-01-02T23:21:29.634Z,100983.38
2023-01-02T23:24:01.905Z,100987.78
2023-01-02T23:26:35.617Z,100972.06
2023-01-02T23:29:08.391Z,100980.88
2023-01-02T23:31:39.438Z,100980.00
2023-01-02T23:34:08.707Z,100973.91
2023-01-02T23:36:38.097Z,100964.03
2023-01-02T23:39:09.935Z,100953.19
2023-01-02T23:41:38.575Z,100939.00
2023-01-02T23:44:07.438Z,100936.63
2023-01-02T23:46:36.936Z,100925.09
2023-01-02T23:49:08.532Z,100930.78
2023-01-02T23:51:37.267Z,100933.47
2023-01-02T23:54:07.946Z,100927.31
2023-01-02T23:56:40.168Z,100916.16
2023-01-02T23:59:11.179Z,100917.44
